Weather observations for the past three days for
Bar Harbor, Hancock County-Bar Harbor Airport
Metric (Imperial)
Date Time (edt) Wind (kph) Vis. (km) Weather Sky Cond. Temperature (ºC) Relative Humidity Wind Chill (°C) Heat Index (°C) Pressure Precipitation (cm)
Air Dwpt 6 hour altimeter (cm) sea level (mb) 1 hr 3 hr 6 hr
Max. Min.
07 16:56 S 26 16.09 Overcast OVC085 11.7 6.1 69% 75.26 0.0
07 15:56 S 26 16.09 Overcast SCT070 OVC085 12.8 6.1 64% 75.23 0.0
07 14:56 S 31 16.09 Mostly Cloudy BKN080 13.9 7.2 64% 75.26 0.0
07 13:56 SW 22 16.09 Partly Cloudy SCT070 15 6.7 58% 75.29 0.0
07 12:56 Vrbl 6 16.09 A Few Clouds FEW055 15 3.3 46% 75.29 0.0
07 11:56 Vrbl 11 16.09 Partly Cloudy SCT040 14.4 5 53% 75.34 0.0
07 09:56 Vrbl 7 16.09 A Few Clouds FEW022 11.7 6.1 69% 75.41 0.0
07 08:56 Vrbl 7 16.09 A Few Clouds FEW018 10.6 6.7 77% 75.44 0.0
07 07:56 NW 6 16.09 Mostly Cloudy BKN090 BKN100 8.3 6.1 86% 75.49 0.0
07 06:56 Calm 16.09 Mostly Cloudy BKN080 BKN095 8.3 7.2 93% 75.46 0.0
07 04:56 Vrbl 11 16.09 Overcast OVC010 8.9 7.8 93% 7 75.39 0.0
07 02:56 Vrbl 11 16.09 Light Rain FEW008 BKN065 OVC075 9.4 9.4 100% 8 75.31 1004.0
07 01:56 SW 15 4.02 Heavy Rain Fog/Mist OVC002 9.4 9.4 11.1 9.4 100% 7 75.39 1005.0
07 00:56 SW 19 1.21 Light Rain Fog/Mist OVC002 9.4 8.9 97% 7 75.29 1003.9
06 21:56 S 33 G 44 9.66 Rain Fog/Mist and Breezy OVC006 11.1 10.6 97% 75.44 1005.8 0.05
06 20:56 S 31 G 41 9.66 Rain Fog/Mist OVC008 11.1 10.6 97% 75.51 1007.0 0.08
06 18:56 S 30 G 39 9.66 Light Rain Fog/Mist FEW009 OVC075 11.1 10 93% 75.59 1008.0 0.05
06 17:56 S 31 G 43 8.05 Light Rain Fog/Mist FEW010 BKN070 OVC080 10.6 10 96% 75.67 1009.0
06 15:56 S 26 G 39 14.48 Overcast BKN012 OVC018 12.2 10 87% 75.67 1008.9
06 14:56 S 31 G 43 12.87 Overcast OVC010 11.7 9.4 86% 75.69 1009.4
06 13:56 S 30 G 41 12.87 Overcast OVC010 11.7 9.4 12.8 11.1 86% 75.77 1010.2
06 12:56 S 28 G 44 12.87 Overcast OVC010 12.2 10 87% 75.79 1010.5
06 11:56 S 30 G 41 12.87 Overcast OVC010 12.2 10 87% 75.84 1011.1
06 10:56 S 19 11.27 Overcast OVC006 11.1 10 93% 75.87 1011.6
06 09:56 S 26 9.66 Fog/Mist OVC006 11.1 10 93% 75.87 1011.5
06 08:56 S 26 9.66 Fog/Mist OVC008 11.1 9.4 89% 75.82 1011.0
06 07:56 S 24 11.27 Overcast OVC010 11.1 9.4 11.1 9.4 89% 75.87 1011.6
06 06:56 SW 13 11.27 Overcast OVC012 10.6 8.9 89% 75.87 1011.6
06 05:56 SW 13 11.27 Overcast OVC014 10 8.9 93% 8 75.84 1011.2
06 04:56 S 19 14.48 Light Rain FEW016 OVC110 10 8.9 93% 8 75.82 1010.8
06 03:56 SW 26 G 33 14.48 Partly Cloudy SCT120 10.6 8.3 86% 75.77 1010.2
06 01:56 S 22 12.87 Partly Cloudy SCT110 9.4 7.2 12.8 9.4 86% 7 75.74 1010.0
06 00:56 S 30 14.48 Overcast OVC100 10 7.2 83% 7 75.74 1009.9
05 23:56 S 31 G 39 14.48 Mostly Cloudy BKN110 10.6 7.8 83% 75.72 1009.7
05 22:56 S 28 14.48 Mostly Cloudy BKN095 10.6 7.8 83% 75.74 1009.8
05 21:56 S 31 G 41 14.48 Fair CLR 10.6 7.8 83% 75.72 1009.7
05 20:56 S 22 16.09 Fair CLR 11.7 8.3 80% 75.72 1009.6
05 19:56 S 20 G 33 12.87 Fair CLR 10.6 7.8 14.4 10.6 83% 75.59 1008.0
05 18:56 S 35 G 44 12.87 Fair and Breezy CLR 10.6 7.8 83% 75.51 1007.1
05 17:56 S 33 G 43 12.87 Fair and Breezy CLR 11.7 7.8 77% 75.54 1007.2
05 16:56 S 22 12.87 Fair CLR 12.8 8.9 77% 75.54 1007.1
05 14:56 SW 33 G 44 16.09 Fair and Breezy CLR 13.9 9.4 74% 75.57 1007.4
05 13:56 S 37 G 50 16.09 Fair and Breezy CLR 13.9 8.9 13.9 11.1 72% 75.59 1008.0
05 12:56 S 33 G 44 16.09 Fair and Breezy CLR 11.7 8.3 80% 75.67 1009.1
05 11:56 S 35 G 44 16.09 Fair and Breezy CLR 12.2 8.3 77% 75.69 1009.2
05 10:56 S 41 G 50 16.09 Fair and Breezy CLR 13.3 8.3 72% 75.69 1009.4
05 09:56 S 30 G 39 16.09 Fair CLR 13.3 8.3 72% 75.72 1009.6
05 08:56 S 35 16.09 Fair and Breezy CLR 11.7 7.8 77% 75.72 1009.6
05 07:56 S 24 16.09 Fair CLR 11.1 7.2 11.1 7.2 77% 75.74 1009.8
05 06:56 S 20 16.09 Fair CLR 9.4 6.7 83% 7 75.74 1009.8
05 03:56 S 17 16.09 Fair CLR 7.8 5.6 86% 5 75.69 1009.1
05 02:56 S 20 16.09 Fair CLR 8.3 5.6 83% 5 75.67 1009.1
05 01:56 S 15 16.09 Fair CLR 8.3 5.6 10.6 7.2 83% 6 75.67 1008.9
05 00:56 S 13 16.09 Fair CLR 7.8 5 83% 6 75.64 1008.6
04 23:56 S 11 16.09 Partly Cloudy FEW095 SCT120 8.3 5.6 83% 7 75.64 1008.7
04 22:56 S 9 16.09 Partly Cloudy SCT090 7.2 5 86% 6 75.64 1008.5
04 21:56 S 9 16.09 A Few Clouds FEW095 7.8 5 83% 6 75.64 1008.6
04 20:56 SW 17 16.09 Fair CLR 9.4 5 74% 7 75.59 1008.0
04 19:56 SW 19 16.09 Mostly Cloudy BKN085 10.6 5 15 10.6 69% 75.54 1007.2
04 18:56 SW 11 16.09 Fair CLR 12.2 5.6 64% 75.46 1006.3
04 17:56 S 15 16.09 Fair CLR 13.9 6.1 60% 75.44 1005.8
Date Time (edt) Wind (kph) Vis. (km) Weather Sky Cond. Air Dwpt Max. Min. Relative Humidity Wind Chill (°C) Heat Index (°C) altimeter (cm) sea level (mb) 1 hr 3 hr 6 hr
6 hour
Temperature (ºC) Pressure Precipitation (cm)